createdAt,value
2022-07-26T00:01:10.372Z,9.25
2022-07-26T00:07:36.794Z,5.85
2022-07-26T00:10:42.591Z,6.75
2022-07-26T00:13:47.732Z,8.48
2022-07-26T00:16:51.114Z,6.35
2022-07-26T00:19:54.463Z,5.47
2022-07-26T00:22:57.806Z,7.28
2022-07-26T00:26:01.104Z,8.98
2022-07-26T00:29:06.537Z,10.75
2022-07-26T00:32:10.217Z,9.00
2022-07-26T00:35:13.574Z,7.63
2022-07-26T00:38:16.902Z,7.07
2022-07-26T00:41:20.343Z,8.10
2022-07-26T00:44:25.085Z,8.77
2022-07-26T00:47:28.388Z,8.25
2022-07-26T00:50:31.884Z,8.75
2022-07-26T00:53:35.180Z,7.85
2022-07-26T00:56:40.084Z,6.82
2022-07-26T01:03:29.269Z,8.45
2022-07-26T01:06:42.957Z,9.55
2022-07-26T01:09:46.352Z,8.07
2022-07-26T01:12:49.794Z,8.90
2022-07-26T01:15:54.554Z,11.05
2022-07-26T01:18:57.981Z,7.35
2022-07-26T01:22:02.796Z,11.00
2022-07-26T01:25:07.279Z,10.95
2022-07-26T01:28:10.582Z,6.85
2022-07-26T01:31:13.899Z,7.28
2022-07-26T01:34:17.623Z,7.28
2022-07-26T01:37:24.465Z,8.82
2022-07-26T01:40:27.815Z,10.98
2022-07-26T01:43:31.144Z,11.77
2022-07-26T01:46:34.651Z,10.27
2022-07-26T01:49:37.943Z,8.13
2022-07-26T01:52:42.610Z,7.88
2022-07-26T01:55:45.844Z,7.90
2022-07-26T01:58:49.584Z,9.30
2022-07-26T02:01:52.982Z,9.85
2022-07-26T02:05:02.066Z,11.70
2022-07-26T02:08:06.936Z,8.15
2022-07-26T02:11:10.493Z,10.45
2022-07-26T02:14:13.749Z,9.13
2022-07-26T02:17:29.532Z,11.73
2022-07-26T02:20:33.370Z,10.25
2022-07-26T02:23:41.307Z,9.10
2022-07-26T02:26:45.245Z,8.75
2022-07-26T02:29:48.483Z,8.98
2022-07-26T02:32:51.774Z,9.10
2022-07-26T02:35:55.005Z,10.55
2022-07-26T02:38:59.632Z,8.80
2022-07-26T02:42:05.154Z,10.80
2022-07-26T02:45:09.868Z,12.23
2022-07-26T02:48:13.121Z,10.40
2022-07-26T02:51:16.466Z,13.60
2022-07-26T02:54:21.059Z,11.68
2022-07-26T02:57:24.364Z,10.93
2022-07-26T03:00:28.113Z,10.77
2022-07-26T03:03:31.565Z,11.52
2022-07-26T03:06:39.872Z,12.20
2022-07-26T03:09:44.551Z,10.57
2022-07-26T03:12:47.818Z,12.05
2022-07-26T03:15:51.195Z,10.55
2022-07-26T03:18:54.450Z,13.90
2022-07-26T03:21:57.721Z,10.93
2022-07-26T03:25:02.343Z,10.30
2022-07-26T03:28:06.016Z,12.77
2022-07-26T03:31:09.372Z,11.77
2022-07-26T03:34:12.683Z,15.05
2022-07-26T03:37:15.998Z,12.38
2022-07-26T03:40:21.127Z,12.95
2022-07-26T03:43:24.381Z,12.65
2022-07-26T03:46:27.785Z,11.75
2022-07-26T03:49:31.173Z,12.85
2022-07-26T03:52:34.732Z,16.67
2022-07-26T03:55:56.797Z,11.80
2022-07-26T03:59:02.007Z,11.88
2022-07-26T04:02:05.407Z,15.68
2022-07-26T04:05:09.509Z,9.70
2022-07-26T04:08:12.763Z,10.63
2022-07-26T04:11:17.448Z,13.10
2022-07-26T04:14:21.275Z,8.73
2022-07-26T04:17:24.620Z,12.02
2022-07-26T04:20:27.956Z,9.77
2022-07-26T04:23:31.350Z,10.32
2022-07-26T04:26:36.203Z,16.20
2022-07-26T04:29:39.469Z,13.02
2022-07-26T04:32:42.748Z,9.40
2022-07-26T04:35:46.506Z,13.00
2022-07-26T04:38:49.755Z,11.05
2022-07-26T04:41:54.391Z,12.23
2022-07-26T04:44:57.625Z,8.45
2022-07-26T04:48:00.858Z,19.08
2022-07-26T04:51:04.286Z,12.82
2022-07-26T04:54:07.947Z,12.90
2022-07-26T04:57:12.883Z,11.20
2022-07-26T05:00:22.890Z,9.88
2022-07-26T05:03:27.117Z,9.77
2022-07-26T05:06:32.197Z,12.57
2022-07-26T05:09:35.497Z,9.05
2022-07-26T05:12:40.257Z,10.02
2022-07-26T05:15:43.671Z,7.82
2022-07-26T05:18:49.098Z,9.15
2022-07-26T05:21:52.765Z,9.50
2022-07-26T05:24:56.094Z,10.77
2022-07-26T05:28:01.034Z,9.50
2022-07-26T05:31:04.474Z,8.00
2022-07-26T05:34:08.564Z,8.13
2022-07-26T05:37:12.574Z,50.28
2022-07-26T05:40:16.029Z,14.20
2022-07-26T05:43:20.789Z,10.52
2022-07-26T05:46:24.153Z,11.63
2022-07-26T05:49:27.502Z,8.70
2022-07-26T05:52:43.308Z,9.30
2022-07-26T05:55:46.681Z,9.30
2022-07-26T05:58:51.356Z,9.27
2022-07-26T06:01:56.523Z,8.85
2022-07-26T06:05:00.038Z,7.18
2022-07-26T06:08:03.316Z,10.32
2022-07-26T06:11:07.244Z,9.88
2022-07-26T06:14:12.209Z,10.05
2022-07-26T06:17:15.798Z,7.25
2022-07-26T06:20:19.072Z,9.57
2022-07-26T06:23:34.262Z,14.13
2022-07-26T06:26:38.654Z,9.38
2022-07-26T06:29:43.329Z,7.35
2022-07-26T06:32:46.703Z,9.15
2022-07-26T06:35:50.043Z,10.38
2022-07-26T06:38:54.964Z,58.70
2022-07-26T06:41:58.338Z,24.58
2022-07-26T06:45:05.970Z,6.88
2022-07-26T06:48:11.257Z,5.35
2022-07-26T06:51:14.609Z,7.82
2022-07-26T06:54:17.887Z,8.35
2022-07-26T06:57:21.544Z,7.88
2022-07-26T07:00:26.236Z,8.65
2022-07-26T07:03:29.594Z,10.43
2022-07-26T07:06:32.972Z,10.20
2022-07-26T07:09:37.569Z,8.38
2022-07-26T07:12:41.813Z,7.32
2022-07-26T07:15:46.625Z,7.15
2022-07-26T07:18:51.359Z,5.82
2022-07-26T07:21:54.751Z,9.70
2022-07-26T07:24:58.490Z,4.80
2022-07-26T07:28:02.039Z,8.43
2022-07-26T07:31:07.346Z,9.35
2022-07-26T07:34:12.517Z,8.95
2022-07-26T07:37:22.721Z,46.13
2022-07-26T07:40:26.843Z,6.95
2022-07-26T07:43:30.286Z,7.38
2022-07-26T07:46:35.782Z,7.28
2022-07-26T07:49:39.181Z,6.10
2022-07-26T07:52:42.555Z,5.22
2022-07-26T07:55:46.830Z,6.93
2022-07-26T07:58:50.420Z,10.05
2022-07-26T08:01:57.187Z,17.27
2022-07-26T08:05:11.360Z,7.28
2022-07-26T08:08:18.000Z,5.45
2022-07-26T08:11:21.383Z,9.38
2022-07-26T08:14:24.877Z,12.52
2022-07-26T08:17:31.938Z,10.23
2022-07-26T08:20:38.058Z,7.80
2022-07-26T08:23:44.081Z,8.88
2022-07-26T08:26:47.458Z,9.18
2022-07-26T08:29:50.740Z,19.40
2022-07-26T08:32:56.894Z,8.77
2022-07-26T08:36:03.166Z,4.78
2022-07-26T08:39:06.915Z,7.55
2022-07-26T08:42:15.587Z,6.65
2022-07-26T08:45:23.753Z,4.95
2022-07-26T08:48:28.847Z,6.32
2022-07-26T08:51:32.767Z,9.60
2022-07-26T08:54:36.324Z,5.80
2022-07-26T08:57:39.742Z,4.90
2022-07-26T09:00:45.519Z,5.50
2022-07-26T09:03:50.942Z,5.60
2022-07-26T09:07:03.513Z,6.63
2022-07-26T09:10:08.969Z,6.90
2022-07-26T09:13:12.397Z,4.57
2022-07-26T09:16:16.259Z,5.63
2022-07-26T09:19:23.620Z,13.02
2022-07-26T09:22:27.068Z,7.45
2022-07-26T09:25:32.943Z,8.25
2022-07-26T09:28:37.281Z,9.13
2022-07-26T09:31:48.517Z,5.55
2022-07-26T09:34:58.893Z,10.50
2022-07-26T09:38:03.476Z,4.65
2022-07-26T09:41:19.518Z,6.28
2022-07-26T09:44:25.506Z,12.68
2022-07-26T09:47:39.766Z,6.18
2022-07-26T09:50:50.241Z,50.42
2022-07-26T09:53:55.346Z,5.05
2022-07-26T09:57:00.741Z,8.52
2022-07-26T10:00:05.897Z,8.45
2022-07-26T10:03:11.280Z,8.70
2022-07-26T10:06:16.101Z,4.68
2022-07-26T10:09:20.375Z,4.85
2022-07-26T10:12:30.603Z,7.38
2022-07-26T10:15:43.265Z,5.75
2022-07-26T10:18:47.404Z,7.10
2022-07-26T10:22:13.939Z,6.18
2022-07-26T10:25:50.461Z,7.43
2022-07-26T10:28:53.886Z,6.47
2022-07-26T10:32:20.526Z,4.90
2022-07-26T10:35:40.737Z,6.80
2022-07-26T10:39:02.709Z,7.72
2022-07-26T10:42:08.482Z,7.30
2022-07-26T10:45:19.314Z,6.00
2022-07-26T10:48:24.887Z,7.25
2022-07-26T10:51:30.841Z,4.93
2022-07-26T10:55:17.114Z,5.00
2022-07-26T10:58:21.052Z,4.70
2022-07-26T11:01:33.124Z,5.05
2022-07-26T11:04:36.609Z,4.78
2022-07-26T11:07:56.759Z,6.60
2022-07-26T11:11:07.400Z,5.25
2022-07-26T11:14:13.114Z,7.28
2022-07-26T11:17:25.955Z,8.18
2022-07-26T11:20:30.119Z,9.15
2022-07-26T11:23:35.494Z,3.80
2022-07-26T11:26:44.642Z,5.35
2022-07-26T11:29:50.225Z,14.40
2022-07-26T11:32:59.780Z,6.43
2022-07-26T11:36:05.079Z,7.45
2022-07-26T11:39:10.701Z,4.90
2022-07-26T11:42:19.504Z,6.80
2022-07-26T11:45:25.630Z,5.53
2022-07-26T11:48:29.702Z,8.52
2022-07-26T11:51:33.470Z,9.02
2022-07-26T11:54:47.064Z,7.07
2022-07-26T11:57:52.071Z,4.13
2022-07-26T12:00:55.514Z,4.63
2022-07-26T12:03:58.872Z,6.43
2022-07-26T12:07:04.431Z,8.77
2022-07-26T12:10:08.558Z,14.65
2022-07-26T12:13:15.012Z,18.98
2022-07-26T12:16:40.211Z,6.80
2022-07-26T12:19:44.129Z,9.15
2022-07-26T12:22:56.245Z,5.25
2022-07-26T12:25:59.572Z,7.65
2022-07-26T12:29:22.529Z,9.35
2022-07-26T12:32:33.243Z,9.75
2022-07-26T12:35:36.518Z,7.72
2022-07-26T12:38:40.754Z,6.00
2022-07-26T12:41:44.067Z,7.07
2022-07-26T12:44:48.855Z,4.40
2022-07-26T12:47:54.759Z,6.15
2022-07-26T12:50:58.994Z,4.90
2022-07-26T12:54:03.477Z,9.75
2022-07-26T12:57:06.865Z,6.97
2022-07-26T13:00:13.280Z,6.55
2022-07-26T13:03:16.637Z,5.00
2022-07-26T13:06:19.962Z,5.65
2022-07-26T13:09:23.340Z,6.53
2022-07-26T13:12:26.905Z,10.73
2022-07-26T13:15:37.424Z,5.22
2022-07-26T13:18:41.254Z,11.20
2022-07-26T13:21:47.998Z,6.20
2022-07-26T13:24:55.668Z,6.78
2022-07-26T13:27:59.656Z,7.65
2022-07-26T13:31:04.505Z,8.63
2022-07-26T13:34:08.326Z,8.35
2022-07-26T13:37:12.014Z,7.15
2022-07-26T13:40:16.739Z,8.63
2022-07-26T13:43:20.638Z,11.20
2022-07-26T13:46:33.469Z,8.02
2022-07-26T13:49:37.393Z,8.35
2022-07-26T13:52:40.886Z,11.23
2022-07-26T13:55:44.417Z,12.07
2022-07-26T13:58:47.762Z,12.18
2022-07-26T14:01:52.946Z,15.65
2022-07-26T14:04:56.269Z,14.68
2022-07-26T14:08:02.665Z,13.15
2022-07-26T14:11:06.552Z,14.23
2022-07-26T14:14:10.344Z,12.00
2022-07-26T14:17:15.361Z,12.18
2022-07-26T14:20:18.933Z,18.75
2022-07-26T14:23:23.483Z,12.07
2022-07-26T14:26:30.313Z,13.40
2022-07-26T14:29:34.261Z,19.92
2022-07-26T14:32:39.309Z,17.35
2022-07-26T14:35:43.988Z,15.10
2022-07-26T14:38:47.818Z,12.10
2022-07-26T14:41:51.513Z,21.75
2022-07-26T14:44:55.392Z,22.42
2022-07-26T14:48:00.588Z,17.17
2022-07-26T14:51:09.550Z,11.80
2022-07-26T14:54:14.819Z,19.02
2022-07-26T14:57:19.833Z,17.60
2022-07-26T15:00:25.366Z,19.20
2022-07-26T15:03:33.678Z,30.27
2022-07-26T15:06:37.357Z,17.55
2022-07-26T15:09:41.011Z,17.25
2022-07-26T15:12:45.401Z,14.55
2022-07-26T15:15:48.835Z,17.25
2022-07-26T15:18:53.646Z,14.23
2022-07-26T15:21:57.072Z,18.98
2022-07-26T15:25:00.637Z,25.33
2022-07-26T15:28:04.394Z,22.45
2022-07-26T15:31:07.882Z,20.45
2022-07-26T15:34:13.064Z,21.67
2022-07-26T15:37:16.701Z,26.00
2022-07-26T15:40:20.915Z,31.92
2022-07-26T15:43:48.319Z,31.33
2022-07-26T15:46:49.851Z,38.13
2022-07-26T15:49:54.508Z,44.53
2022-07-26T15:57:45.134Z,51.58
2022-07-26T16:00:49.652Z,60.13
2022-07-26T16:03:52.994Z,88.80
2022-07-26T16:06:57.694Z,76.78
2022-07-26T16:14:55.172Z,68.78
2022-07-26T16:18:02.922Z,61.33
2022-07-26T16:21:09.323Z,44.30
2022-07-26T16:24:14.015Z,45.92
2022-07-26T16:27:17.648Z,45.40
2022-07-26T16:30:21.991Z,35.13
2022-07-26T16:33:25.339Z,35.97
2022-07-26T16:36:28.931Z,30.33
2022-07-26T16:39:33.737Z,30.45
2022-07-26T16:42:39.064Z,29.10
2022-07-26T16:45:43.076Z,29.80
2022-07-26T16:48:46.812Z,26.42
2022-07-26T16:51:50.609Z,26.35
2022-07-26T16:54:55.477Z,28.98
2022-07-26T16:57:58.790Z,26.67
2022-07-26T17:01:02.275Z,24.45
2022-07-26T17:04:06.018Z,25.60
2022-07-26T17:07:26.050Z,26.27
2022-07-26T17:13:34.313Z,23.75
2022-07-26T17:16:37.908Z,25.25
2022-07-26T17:19:41.744Z,30.00
2022-07-26T17:22:45.180Z,37.05
2022-07-26T17:25:49.956Z,42.28
2022-07-26T17:28:53.250Z,42.38
2022-07-26T17:31:56.606Z,42.65
2022-07-26T17:34:59.988Z,46.47
2022-07-26T17:38:04.126Z,49.72
2022-07-26T17:41:10.742Z,47.50
2022-07-26T17:44:22.206Z,50.00
2022-07-26T17:47:29.265Z,51.63
2022-07-26T17:50:36.850Z,54.33
2022-07-26T17:53:42.275Z,56.17
2022-07-26T17:56:47.127Z,53.70
2022-07-26T17:59:50.520Z,56.15
2022-07-26T18:02:54.176Z,70.32
2022-07-26T18:05:58.591Z,47.05
2022-07-26T18:09:06.797Z,52.70
2022-07-26T18:12:12.319Z,46.75
2022-07-26T18:15:16.404Z,42.78
2022-07-26T18:18:20.943Z,40.30
2022-07-26T18:21:24.589Z,11.18
2022-07-26T18:24:28.141Z,1.70
2022-07-26T18:27:33.276Z,1.00
2022-07-26T18:30:37.702Z,0.45
2022-07-26T18:33:41.230Z,0.75
2022-07-26T18:36:44.768Z,0.82
2022-07-26T18:39:49.938Z,0.80
2022-07-26T18:42:56.376Z,1.05
2022-07-26T18:46:05.567Z,0.40
2022-07-26T18:49:14.061Z,0.77
2022-07-26T18:52:31.604Z,35.60
2022-07-26T18:55:36.263Z,1.85
2022-07-26T18:58:41.551Z,2.00
2022-07-26T19:01:45.152Z,0.90
2022-07-26T19:04:49.082Z,0.65
2022-07-26T19:07:53.378Z,0.85
2022-07-26T19:10:57.748Z,0.63
2022-07-26T19:14:02.887Z,0.32
2022-07-26T19:17:09.990Z,0.30
2022-07-26T19:20:14.011Z,1.05
2022-07-26T19:23:17.525Z,1.05
2022-07-26T19:26:23.439Z,0.90
2022-07-26T19:29:28.675Z,1.20
2022-07-26T19:32:33.705Z,0.63
2022-07-26T19:35:37.362Z,0.50
2022-07-26T19:38:41.228Z,0.10
2022-07-26T19:41:46.298Z,1.10
2022-07-26T19:44:51.319Z,0.17
2022-07-26T19:47:55.152Z,1.08
2022-07-26T19:51:00.637Z,0.43
2022-07-26T19:54:04.565Z,0.43
2022-07-26T19:57:08.354Z,0.50
2022-07-26T20:00:15.107Z,0.30
2022-07-26T20:03:19.410Z,1.33
2022-07-26T20:06:23.822Z,0.40
2022-07-26T20:09:30.380Z,0.40
2022-07-26T20:12:34.993Z,1.13
2022-07-26T20:15:40.261Z,0.77
2022-07-26T20:18:43.939Z,1.90
2022-07-26T20:21:48.279Z,0.40
2022-07-26T20:24:56.221Z,1.40
2022-07-26T20:27:59.900Z,8.60
2022-07-26T20:31:07.645Z,1.88
2022-07-26T20:34:12.676Z,2.42
2022-07-26T20:37:16.294Z,0.60
2022-07-26T20:40:19.822Z,1.05
2022-07-26T20:43:23.538Z,16.13
2022-07-26T20:46:31.470Z,0.57
2022-07-26T20:49:35.183Z,0.82
2022-07-26T20:52:40.438Z,0.52
2022-07-26T20:55:44.772Z,0.38
2022-07-26T20:58:50.460Z,2.20
2022-07-26T21:01:55.718Z,1.80
2022-07-26T21:05:05.016Z,0.40
2022-07-26T21:08:09.331Z,0.47
2022-07-26T21:11:12.950Z,6.85
2022-07-26T21:14:16.704Z,1.25
2022-07-26T21:17:21.545Z,0.20
2022-07-26T21:20:37.458Z,3.88
2022-07-26T21:23:41.452Z,1.98
2022-07-26T21:26:45.588Z,0.77
2022-07-26T21:29:49.067Z,1.30
2022-07-26T21:32:53.964Z,0.40
2022-07-26T21:35:57.386Z,13.65
2022-07-26T21:39:01.173Z,0.80
2022-07-26T21:42:05.395Z,0.40
2022-07-26T21:45:09.483Z,0.70
2022-07-26T21:48:14.253Z,5.20
2022-07-26T21:51:17.685Z,1.20
2022-07-26T21:54:21.006Z,1.08
2022-07-26T21:57:24.424Z,1.65
2022-07-26T22:00:27.823Z,1.73
2022-07-26T22:03:33.352Z,3.03
2022-07-26T22:06:36.861Z,0.82
2022-07-26T22:09:40.306Z,1.00
2022-07-26T22:12:43.719Z,4.93
2022-07-26T22:15:47.851Z,1.15
2022-07-26T22:18:52.812Z,0.28
2022-07-26T22:21:56.173Z,1.00
2022-07-26T22:24:59.465Z,0.47
2022-07-26T22:28:04.211Z,0.43
2022-07-26T22:31:07.530Z,0.77
2022-07-26T22:34:12.268Z,0.75
2022-07-26T22:37:15.826Z,1.70
2022-07-26T22:40:20.114Z,2.83
2022-07-26T22:43:23.560Z,0.70
2022-07-26T22:46:27.504Z,0.95
2022-07-26T22:49:34.240Z,0.85
2022-07-26T22:52:38.220Z,0.82
2022-07-26T22:55:42.078Z,0.47
2022-07-26T22:58:45.380Z,1.05
2022-07-26T23:01:48.714Z,0.85
2022-07-26T23:04:53.433Z,1.02
2022-07-26T23:08:00.412Z,0.52
2022-07-26T23:11:07.237Z,0.63
2022-07-26T23:14:11.395Z,0.73
2022-07-26T23:17:15.068Z,0.60
2022-07-26T23:20:19.819Z,0.30
2022-07-26T23:23:23.179Z,0.32
2022-07-26T23:26:28.741Z,0.55
2022-07-26T23:29:32.168Z,0.40
2022-07-26T23:32:35.520Z,0.98
2022-07-26T23:35:40.172Z,0.73
2022-07-26T23:38:43.498Z,1.05
2022-07-26T23:41:46.778Z,0.28
2022-07-26T23:44:50.110Z,0.52
2022-07-26T23:47:53.646Z,1.13
2022-07-26T23:50:58.423Z,2.20
2022-07-26T23:54:01.713Z,1.42
2022-07-26T23:57:05.229Z,2.95
